Time;durP1;ratioP1;P1;durP2;ratioP2;P2;SDS_P1;SDS_P2;PMS_P1;PMS_P2;Temp;Humidity;BMP_temperature;BMP_pressure;BME280_temperature;BME280_humidity;BME280_pressure;Samples;Min_cycle;Max_cycle;Signal;HPM_P1;HPM_P2
2024/01/24 00:01:20;;;;;;;1.90;1.70;;;;;;;12.36;50.11;98711.15;105442;1254;62192;-43
2024/01/24 00:03:47;;;;;;;1.80;1.70;;;;;;;12.36;50.03;98714.36;105395;1257;76057;-43
2024/01/24 00:06:14;;;;;;;3.40;1.90;;;;;;;12.36;49.99;98720.42;105363;1258;65916;-43
2024/01/24 00:08:41;;;;;;;1.70;1.60;;;;;;;12.36;49.90;98715.91;105447;1259;72402;-43
2024/01/24 00:11:07;;;;;;;2.40;1.90;;;;;;;12.37;50.00;98719.61;105488;1259;62046;-43
2024/01/24 00:13:34;;;;;;;1.90;1.70;;;;;;;12.37;50.00;98717.30;105623;1260;62075;-43
2024/01/24 00:16:01;;;;;;;2.40;1.80;;;;;;;12.37;49.87;98714.40;105585;1254;75240;-43
2024/01/24 00:18:27;;;;;;;2.30;1.80;;;;;;;12.36;50.01;98707.85;105672;1254;66090;-43
2024/01/24 00:20:54;;;;;;;2.30;1.80;;;;;;;12.37;50.03;98711.34;105619;1254;72511;-42
2024/01/24 00:23:23;;;;;;;2.30;1.90;;;;;;;12.37;49.95;98707.10;105676;1260;62048;-43
2024/01/24 00:25:49;;;;;;;2.90;1.70;;;;;;;12.37;50.07;98697.91;105634;1254;62097;-43
2024/01/24 00:28:16;;;;;;;1.60;1.50;;;;;;;12.38;49.85;98696.77;105644;1258;75216;-43
2024/01/24 00:30:43;;;;;;;2.10;1.90;;;;;;;12.38;50.08;98693.88;105593;1260;66233;-43
2024/01/24 00:33:10;;;;;;;2.00;1.80;;;;;;;12.37;49.95;98688.98;105619;1258;71426;-43
2024/01/24 00:35:37;;;;;;;2.40;1.80;;;;;;;12.37;49.94;98690.55;105478;1259;62054;-42
2024/01/24 00:38:03;;;;;;;2.20;1.70;;;;;;;12.37;49.92;98691.30;105462;1254;62074;-42
2024/01/24 00:40:30;;;;;;;1.80;1.60;;;;;;;12.38;50.03;98687.97;105512;1259;75265;-42
2024/01/24 00:42:57;;;;;;;1.90;1.70;;;;;;;12.38;50.09;98686.73;105544;1258;65582;-44
2024/01/24 00:45:23;;;;;;;2.60;2.00;;;;;;;12.38;49.96;98690.71;105450;1259;72628;-42
2024/01/24 00:47:50;;;;;;;2.00;1.70;;;;;;;12.38;49.90;98694.63;105536;1259;62053;-42
2024/01/24 00:50:17;;;;;;;2.10;1.80;;;;;;;12.38;49.95;98696.03;105364;1254;62146;-42
2024/01/24 00:52:44;;;;;;;1.60;1.50;;;;;;;12.37;49.99;98697.38;105486;1261;75304;-42
2024/01/24 00:55:11;;;;;;;2.60;1.80;;;;;;;12.38;49.83;98697.10;105394;1259;64838;-41
2024/01/24 00:57:37;;;;;;;2.10;1.70;;;;;;;12.38;49.92;98698.34;105596;1258;72628;-43
2024/01/24 01:00:06;;;;;;;1.70;1.50;;;;;;;12.38;49.95;98698.50;105285;1261;62121;-44
2024/01/24 01:02:33;;;;;;;1.70;1.40;;;;;;;12.38;50.02;98692.21;105524;1254;62140;-44
2024/01/24 01:05:00;;;;;;;2.40;1.70;;;;;;;12.38;50.02;98685.77;105631;1254;75189;-44
2024/01/24 01:07:27;;;;;;;3.00;1.70;;;;;;;12.39;49.94;98677.44;105663;1259;66176;-43
2024/01/24 01:09:53;;;;;;;2.30;1.50;;;;;;;12.39;49.94;98667.45;105618;1258;62151;-43
2024/01/24 01:12:20;;;;;;;2.00;1.70;;;;;;;12.39;49.88;98669.92;105647;1254;62175;-43
2024/01/24 01:14:47;;;;;;;2.00;1.80;;;;;;;12.39;50.12;98676.05;105573;1257;62060;-43
2024/01/24 01:17:13;;;;;;;2.30;2.00;;;;;;;12.39;49.87;98684.27;105450;1259;172833;-47
2024/01/24 01:19:40;;;;;;;2.00;1.80;;;;;;;12.39;49.95;98688.77;105344;1259;65493;-42
2024/01/24 01:22:06;;;;;;;1.90;1.70;;;;;;;12.39;50.07;98690.02;105374;1254;72652;-42
2024/01/24 01:24:33;;;;;;;2.00;1.60;;;;;;;12.39;49.84;98685.88;105358;1258;62086;-43
2024/01/24 01:27:01;;;;;;;4.30;1.80;;;;;;;12.39;49.96;98683.73;105406;1259;62128;-43
2024/01/24 01:29:27;;;;;;;2.90;1.90;;;;;;;12.39;50.02;98689.73;105671;1254;75210;-43
2024/01/24 01:31:54;;;;;;;2.20;1.80;;;;;;;12.39;50.04;98697.73;105774;1258;64777;-43
2024/01/24 01:34:21;;;;;;;2.00;1.80;;;;;;;12.39;50.00;98687.38;105656;1254;72597;-43
2024/01/24 01:36:47;;;;;;;1.70;1.60;;;;;;;12.39;49.98;98683.61;105613;1258;62097;-43
2024/01/24 01:39:14;;;;;;;1.70;1.60;;;;;;;12.40;49.88;98686.61;105509;1254;62443;-43
2024/01/24 01:41:40;;;;;;;2.10;1.90;;;;;;;12.40;49.92;98687.63;106033;1254;75342;-43
2024/01/24 01:44:07;;;;;;;2.10;1.60;;;;;;;12.39;49.90;98685.91;105564;1258;65935;-43
2024/01/24 01:46:34;;;;;;;2.10;1.80;;;;;;;12.40;49.91;98681.51;105370;1254;72496;-43
2024/01/24 01:49:00;;;;;;;1.80;1.60;;;;;;;12.40;49.94;98681.34;105552;1254;62038;-43
2024/01/24 01:51:27;;;;;;;2.20;1.80;;;;;;;12.40;50.04;98679.84;105544;1259;62144;-43
2024/01/24 01:53:54;;;;;;;2.20;1.90;;;;;;;12.40;49.91;98672.16;105535;1254;75266;-43
2024/01/24 01:56:21;;;;;;;1.90;1.50;;;;;;;12.40;49.91;98662.27;105406;1258;65747;-43
2024/01/24 01:58:48;;;;;;;3.50;2.00;;;;;;;12.41;50.04;98660.42;105197;1254;72618;-43
2024/01/24 02:01:15;;;;;;;1.80;1.60;;;;;;;12.40;49.97;98661.30;105498;1258;62980;-43
2024/01/24 02:03:46;;;;;;;2.10;1.80;;;;;;;12.40;49.98;98673.23;105667;1254;62069;-43
2024/01/24 02:06:13;;;;;;;1.90;1.70;;;;;;;12.41;49.98;98677.08;105618;1254;75365;-43
2024/01/24 02:08:40;;;;;;;1.80;1.60;;;;;;;12.41;49.85;98672.41;105700;1258;66286;-43
2024/01/24 02:11:07;;;;;;;2.10;1.70;;;;;;;12.41;49.86;98673.81;105550;1254;72418;-42
2024/01/24 02:13:34;;;;;;;2.00;1.60;;;;;;;12.42;49.80;98678.52;105577;1260;62159;-42
2024/01/24 02:16:04;;;;;;;2.20;1.90;;;;;;;12.41;49.95;98674.45;105466;1258;62144;-42
2024/01/24 02:18:31;;;;;;;2.20;1.80;;;;;;;12.41;49.88;98667.09;105420;1258;75319;-42
2024/01/24 02:20:57;;;;;;;2.10;1.60;;;;;;;12.42;49.90;98665.14;105565;1259;66144;-42
2024/01/24 02:23:25;;;;;;;2.30;1.60;;;;;;;12.42;49.76;98667.79;105332;1255;72620;-42
2024/01/24 02:25:52;;;;;;;1.80;1.70;;;;;;;12.42;49.93;98670.95;105423;1255;62045;-42
2024/01/24 02:28:19;;;;;;;2.00;1.70;;;;;;;12.42;49.82;98667.52;105431;1254;62098;-42
2024/01/24 02:30:46;;;;;;;2.50;1.90;;;;;;;12.42;49.87;98670.67;105503;1259;74356;-42
2024/01/24 02:33:12;;;;;;;2.10;1.80;;;;;;;12.42;49.84;98666.97;105547;1254;65299;-42
2024/01/24 02:35:39;;;;;;;1.90;1.60;;;;;;;12.42;49.81;98661.77;105430;1254;72501;-43
2024/01/24 02:38:06;;;;;;;2.20;1.80;;;;;;;12.42;49.85;98665.20;105592;1258;61956;-43
2024/01/24 02:40:33;;;;;;;1.80;1.60;;;;;;;12.42;49.79;98674.40;105456;1254;62374;-43
2024/01/24 02:42:59;;;;;;;2.00;1.80;;;;;;;12.42;49.82;98668.20;105681;1258;75447;-42
2024/01/24 02:45:26;;;;;;;2.10;1.70;;;;;;;12.43;49.86;98664.87;105522;1254;65698;-42
2024/01/24 02:47:53;;;;;;;2.10;1.70;;;;;;;12.42;49.89;98664.83;105394;1254;72748;-43
2024/01/24 02:50:20;;;;;;;1.70;1.60;;;;;;;12.43;49.81;98669.17;105409;1258;62035;-43
2024/01/24 02:52:46;;;;;;;1.60;1.50;;;;;;;12.44;49.88;98673.67;105563;1254;62410;-43
2024/01/24 02:55:15;;;;;;;2.30;1.80;;;;;;;12.43;49.91;98668.95;105611;1256;75303;-43
2024/01/24 02:57:42;;;;;;;1.70;1.60;;;;;;;12.43;49.82;98665.83;105656;1254;66052;-43
2024/01/24 03:00:10;;;;;;;1.60;1.50;;;;;;;12.43;49.76;98667.06;105637;1257;71156;-43
2024/01/24 03:02:37;;;;;;;2.60;1.70;;;;;;;12.43;49.93;98665.20;105647;1258;62107;-43
2024/01/24 03:05:05;;;;;;;1.70;1.60;;;;;;;12.43;49.84;98662.07;105414;1256;62064;-43
2024/01/24 03:07:32;;;;;;;1.90;1.70;;;;;;;12.43;49.86;98660.09;105428;1254;74158;-42
2024/01/24 03:09:59;;;;;;;1.90;1.70;;;;;;;12.44;49.83;98655.88;105395;1258;65586;-42
2024/01/24 03:12:26;;;;;;;2.10;1.70;;;;;;;12.44;49.83;98658.63;105351;1254;72751;-43
2024/01/24 03:14:52;;;;;;;2.10;1.70;;;;;;;12.44;49.80;98655.88;105328;1258;62046;-43
2024/01/24 03:17:19;;;;;;;1.70;1.60;;;;;;;12.44;49.85;98648.35;105275;1254;62051;-44
2024/01/24 03:19:45;;;;;;;1.80;1.40;;;;;;;12.43;49.94;98640.20;105557;1254;75378;-44
2024/01/24 03:22:13;;;;;;;2.30;1.80;;;;;;;12.44;49.82;98632.55;105611;1254;66263;-43
2024/01/24 03:24:39;;;;;;;2.00;1.70;;;;;;;12.44;49.80;98625.24;105695;1254;72574;-43
2024/01/24 03:27:06;;;;;;;1.70;1.60;;;;;;;12.44;49.75;98614.34;105623;1258;62040;-43
2024/01/24 03:29:33;;;;;;;2.10;1.80;;;;;;;12.45;49.78;98623.30;105585;1254;62146;-43
2024/01/24 03:31:59;;;;;;;2.20;1.50;;;;;;;12.44;49.82;98626.05;105389;1259;75897;-43
2024/01/24 03:34:30;;;;;;;2.20;1.60;;;;;;;12.44;49.77;98622.45;105460;1256;65223;-44
2024/01/24 03:36:56;;;;;;;1.90;1.70;;;;;;;12.44;49.75;98621.27;105576;1254;72399;-42
2024/01/24 03:39:23;;;;;;;1.80;1.50;;;;;;;12.45;49.78;98621.16;105671;1257;61933;-42
2024/01/24 03:41:50;;;;;;;2.00;1.80;;;;;;;12.45;49.88;98620.62;105867;1254;62001;-43
2024/01/24 03:44:17;;;;;;;2.90;1.50;;;;;;;12.45;49.82;98621.27;105608;1258;75405;-43
2024/01/24 03:46:43;;;;;;;1.90;1.70;;;;;;;12.45;49.82;98623.95;105896;1257;66222;-43
2024/01/24 03:49:10;;;;;;;2.90;1.80;;;;;;;12.45;49.69;98624.17;105461;1254;72602;-43
2024/01/24 03:51:36;;;;;;;2.50;1.80;;;;;;;12.45;49.77;98624.86;106035;1258;62605;-44
2024/01/24 03:54:04;;;;;;;2.30;1.60;;;;;;;12.45;49.84;98618.04;105645;1254;62243;-42
2024/01/24 03:56:31;;;;;;;2.70;1.90;;;;;;;12.45;49.77;98610.14;105623;1256;75603;-42
2024/01/24 03:58:57;;;;;;;1.90;1.70;;;;;;;12.45;49.79;98601.02;105629;1259;65546;-42
2024/01/24 04:01:24;;;;;;;2.00;1.60;;;;;;;12.45;49.90;98597.04;105606;1254;72610;-42
2024/01/24 04:03:51;;;;;;;1.80;1.70;;;;;;;12.45;49.88;98595.64;105656;1257;62050;-42
2024/01/24 04:06:17;;;;;;;1.80;1.60;;;;;;;12.46;49.79;98593.54;105503;1254;62073;-43
2024/01/24 04:08:45;;;;;;;2.40;1.70;;;;;;;12.45;49.89;98592.95;105656;1258;75665;-43
2024/01/24 04:11:11;;;;;;;3.80;1.60;;;;;;;12.45;49.76;98594.52;105583;1260;65820;-43
2024/01/24 04:13:42;;;;;;;2.70;1.90;;;;;;;12.46;49.90;98594.23;105617;1254;72590;-43
2024/01/24 04:16:08;;;;;;;2.50;1.60;;;;;;;12.46;49.87;98592.52;105578;1258;62065;-43
2024/01/24 04:18:35;;;;;;;1.70;1.50;;;;;;;12.45;49.84;98594.83;105440;1256;62063;-43
2024/01/24 04:21:02;;;;;;;1.90;1.60;;;;;;;12.46;49.74;98599.29;105357;1255;75109;-43
2024/01/24 04:23:29;;;;;;;1.60;1.50;;;;;;;12.46;49.82;98603.67;105649;1258;66100;-43
2024/01/24 04:25:56;;;;;;;2.90;1.80;;;;;;;12.46;49.74;98609.66;105623;1254;72588;-42
2024/01/24 04:28:22;;;;;;;2.90;1.80;;;;;;;12.46;49.77;98611.81;105721;1259;62035;-42
2024/01/24 04:30:49;;;;;;;1.70;1.60;;;;;;;12.46;49.77;98619.65;105608;1254;62133;-41
2024/01/24 04:33:15;;;;;;;2.10;1.70;;;;;;;12.46;49.85;98625.94;105657;1254;75431;-42
2024/01/24 04:35:42;;;;;;;1.90;1.70;;;;;;;12.46;49.69;98625.71;105474;1258;66114;-43
2024/01/24 04:38:09;;;;;;;2.50;1.80;;;;;;;12.46;50.00;98623.88;105450;1258;62150;-43
2024/01/24 04:40:35;;;;;;;1.60;1.50;;;;;;;12.46;49.78;98622.50;105465;1254;62147;-42
2024/01/24 04:43:02;;;;;;;1.80;1.70;;;;;;;12.46;49.69;98615.89;105559;1256;62115;-42
2024/01/24 04:45:29;;;;;;;2.20;1.80;;;;;;;12.46;49.74;98611.21;105654;1256;75207;-42
2024/01/24 04:47:56;;;;;;;2.10;1.70;;;;;;;12.46;49.90;98610.14;105528;1261;65808;-42
2024/01/24 04:50:22;;;;;;;2.00;1.80;;;;;;;12.47;49.64;98606.80;105655;1255;73044;-42
2024/01/24 04:52:49;;;;;;;2.40;1.90;;;;;;;12.47;49.79;98593.89;105659;1254;62051;-43
2024/01/24 04:55:16;;;;;;;2.30;1.80;;;;;;;12.47;49.75;98587.44;105587;1254;62037;-43
2024/01/24 04:57:43;;;;;;;2.00;1.80;;;;;;;12.47;49.92;98581.86;105286;1261;75373;-43
2024/01/24 05:00:11;;;;;;;1.70;1.60;;;;;;;12.47;49.79;98578.41;105440;1258;65735;-43
2024/01/24 05:02:39;;;;;;;2.30;1.70;;;;;;;12.47;49.74;98580.83;105466;1256;72627;-43
2024/01/24 05:05:06;;;;;;;1.70;1.50;;;;;;;12.46;49.74;98571.00;105581;1258;62036;-43
2024/01/24 05:07:34;;;;;;;2.00;1.70;;;;;;;12.47;49.89;98564.88;105465;1256;62156;-43
2024/01/24 05:10:02;;;;;;;1.90;1.70;;;;;;;12.47;49.68;98556.01;105584;1255;75411;-41
2024/01/24 05:12:29;;;;;;;2.20;1.80;;;;;;;12.47;49.70;98552.98;105446;1254;63869;-42
2024/01/24 05:14:56;;;;;;;1.80;1.60;;;;;;;12.47;49.80;98547.20;105489;1254;72311;-43
2024/01/24 05:17:23;;;;;;;2.70;2.00;;;;;;;12.47;49.76;98535.36;105400;1258;62047;-42
2024/01/24 05:19:50;;;;;;;2.00;1.80;;;;;;;12.48;49.71;98532.48;105527;1254;62058;-44
2024/01/24 05:22:16;;;;;;;2.40;1.90;;;;;;;12.47;49.86;98531.83;105534;1254;75358;-43
2024/01/24 05:24:44;;;;;;;2.50;1.70;;;;;;;12.47;49.77;98526.66;105717;1258;65053;-43
2024/01/24 05:27:12;;;;;;;2.20;1.70;;;;;;;12.48;49.71;98526.34;105699;1254;72392;-42
2024/01/24 05:29:39;;;;;;;1.70;1.60;;;;;;;12.47;49.70;98519.68;105574;1258;62045;-42
2024/01/24 05:32:06;;;;;;;1.70;1.60;;;;;;;12.47;49.65;98519.41;105557;1255;62187;-44
2024/01/24 05:34:33;;;;;;;1.70;1.50;;;;;;;12.47;49.75;98522.05;105487;1255;75327;-44
2024/01/24 05:36:59;;;;;;;1.80;1.70;;;;;;;12.47;49.88;98524.30;105574;1254;66024;-42
2024/01/24 05:39:26;;;;;;;1.70;1.50;;;;;;;12.47;49.89;98529.89;105652;1254;72433;-43
2024/01/24 05:41:53;;;;;;;2.10;1.80;;;;;;;12.48;49.85;98533.70;105750;1258;62055;-42
2024/01/24 05:44:20;;;;;;;2.80;1.80;;;;;;;12.47;49.75;98529.09;105552;1254;62127;-42
2024/01/24 05:46:47;;;;;;;2.00;1.70;;;;;;;12.47;49.79;98532.84;105941;1258;75312;-43
2024/01/24 05:49:13;;;;;;;1.80;1.60;;;;;;;12.48;49.74;98535.64;105642;1255;65833;-43
2024/01/24 05:51:42;;;;;;;1.90;1.50;;;;;;;12.48;49.69;98534.34;106107;1254;72367;-42
2024/01/24 05:54:09;;;;;;;1.80;1.60;;;;;;;12.48;49.78;98533.90;105524;1259;62046;-43
2024/01/24 05:56:35;;;;;;;2.20;1.80;;;;;;;12.48;49.73;98530.04;106015;1254;62711;-41
2024/01/24 05:59:02;;;;;;;2.00;1.70;;;;;;;12.48;49.79;98528.65;105562;1257;75318;-41
2024/01/24 06:01:29;;;;;;;1.90;1.70;;;;;;;12.48;49.68;98528.39;105327;1258;65309;-43
2024/01/24 06:03:56;;;;;;;6.40;1.90;;;;;;;12.49;49.76;98521.11;105597;1254;72705;-41
2024/01/24 06:06:23;;;;;;;2.10;1.80;;;;;;;12.49;49.75;98520.95;105641;1258;62031;-41
2024/01/24 06:08:50;;;;;;;1.80;1.60;;;;;;;12.49;49.74;98518.79;105493;1258;62070;-42
2024/01/24 06:11:17;;;;;;;2.20;1.70;;;;;;;12.49;49.73;98512.89;105613;1258;75343;-43
2024/01/24 06:13:44;;;;;;;2.40;1.80;;;;;;;12.49;49.69;98511.81;105695;1257;66006;-41
2024/01/24 06:16:10;;;;;;;1.60;1.50;;;;;;;12.49;49.76;98511.11;105603;1255;72359;-42
2024/01/24 06:18:37;;;;;;;1.70;1.60;;;;;;;12.49;49.85;98510.05;105577;1257;62497;-42
2024/01/24 06:21:04;;;;;;;1.80;1.70;;;;;;;12.49;49.64;98508.59;105498;1254;62214;-42
2024/01/24 06:23:30;;;;;;;2.10;1.40;;;;;;;12.49;49.80;98508.53;105559;1259;75098;-42
2024/01/24 06:25:57;;;;;;;2.00;1.70;;;;;;;12.49;49.70;98504.71;105587;1258;65512;-43
2024/01/24 06:28:24;;;;;;;2.70;1.70;;;;;;;12.49;49.64;98503.31;105499;1254;72388;-42
2024/01/24 06:30:51;;;;;;;2.40;1.70;;;;;;;12.50;49.70;98506.20;105486;1254;62047;-42
2024/01/24 06:33:18;;;;;;;2.20;2.00;;;;;;;12.50;49.88;98501.81;105387;1256;62035;-43
2024/01/24 06:35:45;;;;;;;1.80;1.60;;;;;;;12.50;49.63;98501.65;105397;1254;75436;-42
2024/01/24 06:38:12;;;;;;;1.60;1.50;;;;;;;12.50;49.76;98496.77;105505;1258;66229;-42
2024/01/24 06:40:39;;;;;;;2.40;1.70;;;;;;;12.50;49.69;98494.23;105420;1255;72303;-44
2024/01/24 06:43:06;;;;;;;1.90;1.70;;;;;;;12.50;49.88;98495.47;105613;1258;62044;-43
2024/01/24 06:45:32;;;;;;;2.60;2.00;;;;;;;12.50;49.75;98494.02;105371;1255;62061;-42
2024/01/24 06:48:04;;;;;;;2.10;1.90;;;;;;;12.50;49.68;98494.17;105445;1254;76106;-43
2024/01/24 06:51:55;;;;;;;1.60;1.50;;;;;;;12.50;49.79;98493.53;105407;1258;65257;-42
2024/01/24 06:54:22;;;;;;;2.20;1.90;;;;;;;12.50;49.63;98491.55;107025;1255;72455;-42
2024/01/24 06:56:49;;;;;;;2.30;1.70;;;;;;;12.51;49.75;98502.33;107360;1255;62171;-43
2024/01/24 06:59:16;;;;;;;2.70;1.80;;;;;;;12.51;49.72;98497.59;105481;1254;62391;-43
2024/01/24 07:01:42;;;;;;;2.00;1.70;;;;;;;12.51;49.77;98492.23;105537;1258;75348;-42
2024/01/24 07:04:09;;;;;;;3.40;1.80;;;;;;;12.52;49.74;98478.98;105727;1257;66222;-41
2024/01/24 07:06:36;;;;;;;2.00;1.80;;;;;;;12.52;49.75;98465.12;106062;1253;73705;-40
2024/01/24 07:09:03;;;;;;;2.00;1.70;;;;;;;12.54;49.85;98453.82;107707;1254;62059;-41
2024/01/24 07:11:30;;;;;;;1.50;1.40;;;;;;;12.56;49.89;98446.42;105417;1253;62126;-41
2024/01/24 07:13:56;;;;;;;2.10;1.80;;;;;;;12.57;50.04;98437.05;105526;1254;75333;-43
2024/01/24 07:16:23;;;;;;;2.70;1.90;;;;;;;12.59;50.01;98435.67;105521;1257;66674;-42
2024/01/24 07:18:50;;;;;;;1.80;1.60;;;;;;;12.60;49.96;98433.05;105555;1253;73428;-41
2024/01/24 07:21:16;;;;;;;2.30;1.90;;;;;;;12.61;49.99;98429.58;105503;1258;62133;-42
2024/01/24 07:23:45;;;;;;;1.90;1.60;;;;;;;12.61;50.12;98420.00;105553;1253;62069;-41
2024/01/24 07:26:11;;;;;;;2.30;1.90;;;;;;;12.62;50.23;98419.98;105551;1256;75194;-44
2024/01/24 07:28:38;;;;;;;1.70;1.50;;;;;;;12.63;50.32;98419.12;105593;1253;66199;-41
2024/01/24 07:31:05;;;;;;;4.20;1.80;;;;;;;12.64;50.23;98410.34;105551;1257;72619;-42
2024/01/24 07:33:33;;;;;;;2.20;1.80;;;;;;;12.65;50.27;98409.30;105691;1257;62034;-42
2024/01/24 07:35:59;;;;;;;2.70;1.70;;;;;;;12.65;50.24;98399.67;105671;1253;62126;-42
2024/01/24 07:38:26;;;;;;;1.80;1.70;;;;;;;12.66;50.24;98390.85;105580;1257;75554;-41
2024/01/24 07:40:52;;;;;;;2.50;1.90;;;;;;;12.66;50.27;98387.03;105438;1259;65044;-40
2024/01/24 07:43:20;;;;;;;5.00;1.90;;;;;;;12.66;50.13;98377.84;105558;1253;72337;-42
2024/01/24 07:45:46;;;;;;;1.90;1.70;;;;;;;12.67;50.21;98373.58;105481;1256;62157;-44
2024/01/24 07:48:14;;;;;;;2.30;1.90;;;;;;;12.68;50.35;98367.86;105469;1258;62069;-42
2024/01/24 07:50:42;;;;;;;2.50;1.80;;;;;;;12.67;50.34;98355.73;105537;1255;75902;-44
2024/01/24 07:53:09;;;;;;;3.80;1.90;;;;;;;12.68;50.35;98348.63;105533;1256;65569;-42
2024/01/24 07:55:36;;;;;;;2.20;2.00;;;;;;;12.68;50.40;98339.96;105329;1254;72831;-43
2024/01/24 07:58:19;;;;;;;3.30;2.00;;;;;;;12.69;50.46;98334.31;105406;1255;61987;-43
2024/01/24 08:00:47;;;;;;;2.20;2.00;;;;;;;12.69;50.29;98339.09;105394;1254;62227;-43
2024/01/24 08:03:13;;;;;;;1.90;1.70;;;;;;;12.70;50.40;98329.98;105434;1258;75361;-41
2024/01/24 08:05:40;;;;;;;2.80;1.80;;;;;;;12.70;50.54;98324.02;105404;1258;65029;-42
2024/01/24 08:08:07;;;;;;;2.40;2.00;;;;;;;12.70;50.56;98318.11;105472;1254;72334;-43
2024/01/24 08:10:34;;;;;;;4.30;2.00;;;;;;;12.72;50.57;98324.20;105504;1257;62037;-41
2024/01/24 08:13:01;;;;;;;3.20;2.00;;;;;;;12.74;50.68;98323.27;105638;1254;62748;-40
2024/01/24 08:15:28;;;;;;;3.10;2.10;;;;;;;12.78;50.72;98316.77;105748;1254;74925;-41
2024/01/24 08:17:55;;;;;;;3.80;2.10;;;;;;;12.85;51.20;98313.05;105544;1253;67256;-40
2024/01/24 08:20:22;;;;;;;4.80;2.30;;;;;;;12.91;51.73;98307.83;105712;1257;72623;-41
2024/01/24 08:22:49;;;;;;;3.00;2.30;;;;;;;12.97;51.66;98303.37;105319;1254;62040;-43
2024/01/24 08:25:16;;;;;;;3.50;2.20;;;;;;;13.03;51.79;98299.88;105662;1254;62094;-40
2024/01/24 08:27:43;;;;;;;10.00;2.30;;;;;;;13.08;51.88;98297.12;105595;1258;75191;-40
2024/01/24 08:30:10;;;;;;;2.60;2.00;;;;;;;13.12;51.88;98288.96;105646;1257;64926;-41
2024/01/24 08:32:40;;;;;;;2.90;2.20;;;;;;;13.16;51.72;98285.71;105435;1254;72661;-40
2024/01/24 08:35:08;;;;;;;2.00;1.70;;;;;;;13.19;51.92;98276.02;105720;1256;62074;-39
2024/01/24 08:37:35;;;;;;;2.80;2.10;;;;;;;13.22;51.90;98274.56;105701;1254;62076;-41
2024/01/24 08:40:02;;;;;;;2.90;2.00;;;;;;;13.24;51.85;98274.52;105633;1254;76144;-41
2024/01/24 08:42:29;;;;;;;3.10;1.80;;;;;;;13.26;51.71;98268.39;105678;1256;66474;-41
2024/01/24 08:44:56;;;;;;;3.70;2.20;;;;;;;13.28;51.70;98269.60;105676;1256;72608;-40
2024/01/24 08:47:23;;;;;;;3.10;1.90;;;;;;;13.29;51.65;98259.45;105645;1258;62082;-41
2024/01/24 08:49:52;;;;;;;3.60;2.10;;;;;;;13.31;51.66;98254.09;105343;1256;62114;-42
2024/01/24 08:52:19;;;;;;;3.60;2.00;;;;;;;13.32;51.64;98248.52;105644;1256;75397;-40
2024/01/24 08:54:46;;;;;;;2.20;1.90;;;;;;;13.33;51.53;98245.88;105459;1258;65562;-41
2024/01/24 08:57:13;;;;;;;3.20;2.00;;;;;;;13.33;51.51;98232.67;105490;1255;72616;-40
2024/01/24 08:59:40;;;;;;;3.80;2.10;;;;;;;13.34;51.44;98221.64;105570;1258;62051;-41
2024/01/24 09:02:07;;;;;;;2.60;1.90;;;;;;;13.34;51.42;98213.35;105543;1253;62128;-40
2024/01/24 09:04:36;;;;;;;4.70;1.90;;;;;;;13.35;51.33;98203.65;105720;1257;75391;-40
2024/01/24 09:07:04;;;;;;;3.60;1.90;;;;;;;13.35;51.28;98194.12;105742;1253;66152;-40
2024/01/24 09:09:33;;;;;;;3.30;1.90;;;;;;;13.36;51.36;98191.36;105569;1253;72377;-41
2024/01/24 09:12:00;;;;;;;2.80;1.60;;;;;;;13.37;51.21;98180.30;105660;1258;62020;-41
2024/01/24 09:14:27;;;;;;;7.00;2.10;;;;;;;13.38;51.20;98170.98;105622;1254;62444;-42
2024/01/24 09:16:54;;;;;;;2.20;2.00;;;;;;;13.38;51.21;98159.55;105732;1255;76359;-40
2024/01/24 09:19:22;;;;;;;2.70;2.00;;;;;;;13.39;51.09;98150.06;105677;1257;67308;-39
2024/01/24 09:21:50;;;;;;;3.30;2.30;;;;;;;13.40;51.07;98140.51;105806;1257;71158;-39
2024/01/24 09:24:16;;;;;;;3.70;2.20;;;;;;;13.41;51.13;98129.41;105556;1254;62124;-39
2024/01/24 09:26:43;;;;;;;3.50;2.10;;;;;;;13.41;51.05;98117.67;105429;1253;62146;-40
2024/01/24 09:29:12;;;;;;;3.30;2.40;;;;;;;13.41;50.86;98107.66;105593;1253;75364;-38
2024/01/24 09:31:45;;;;;;;3.90;2.40;;;;;;;13.41;50.79;98104.71;105525;1254;66457;-41
2024/01/24 09:34:12;;;;;;;5.20;2.00;;;;;;;13.42;50.99;98096.48;105329;1253;72300;-39
2024/01/24 09:36:39;;;;;;;6.00;2.40;;;;;;;13.43;51.17;98090.41;106004;1258;62226;-41
2024/01/24 09:39:07;;;;;;;2.90;2.40;;;;;;;13.45;51.21;98080.23;105610;1254;62075;-40
2024/01/24 09:41:52;;;;;;;3.00;2.50;;;;;;;13.46;51.23;98070.86;105642;1257;76441;-39
2024/01/24 09:44:19;;;;;;;2.70;2.30;;;;;;;13.47;51.14;98066.68;105617;1257;67293;-41
2024/01/24 09:46:47;;;;;;;3.50;2.50;;;;;;;13.47;51.20;98052.95;105857;1254;73410;-42
2024/01/24 09:49:15;;;;;;;3.00;2.40;;;;;;;13.48;51.20;98045.99;105612;1254;62267;-42
2024/01/24 09:51:42;;;;;;;3.70;2.40;;;;;;;13.49;51.21;98027.90;105994;1254;62072;-42
2024/01/24 09:54:09;;;;;;;3.90;2.60;;;;;;;13.49;51.23;98014.28;105342;1259;76436;-41
2024/01/24 09:56:37;;;;;;;3.90;2.40;;;;;;;13.49;51.29;98000.99;106197;1258;65537;-41
2024/01/24 09:59:05;;;;;;;4.10;2.50;;;;;;;13.49;51.41;97986.41;105591;1254;74808;-40
2024/01/24 10:01:37;;;;;;;3.00;2.60;;;;;;;13.49;51.40;97974.17;105528;1257;62056;-40
2024/01/24 10:04:04;;;;;;;3.30;2.30;;;;;;;13.49;51.35;97970.57;105640;1258;62069;-41
2024/01/24 10:06:31;;;;;;;3.60;2.70;;;;;;;13.49;51.39;97971.64;106108;1259;76273;-37
2024/01/24 10:08:58;;;;;;;3.10;2.60;;;;;;;13.50;51.32;97961.89;105505;1254;65849;-40
2024/01/24 10:11:25;;;;;;;3.40;2.60;;;;;;;13.51;51.38;97963.27;105452;1254;73464;-40
2024/01/24 10:13:58;;;;;;;3.50;2.80;;;;;;;13.53;51.31;97954.11;105590;1259;62041;-42
2024/01/24 10:16:25;;;;;;;3.40;2.80;;;;;;;13.53;51.31;97945.32;105695;1259;62005;-40
2024/01/24 10:18:56;;;;;;;3.90;2.90;;;;;;;13.55;51.19;97931.61;105567;1256;76574;-41
2024/01/24 10:21:24;;;;;;;3.40;2.60;;;;;;;13.56;51.17;97920.14;105619;1254;67381;-42
2024/01/24 10:23:59;;;;;;;3.50;2.50;;;;;;;13.56;51.01;97906.09;105563;1253;72660;-41
2024/01/24 10:26:26;;;;;;;3.30;2.50;;;;;;;13.56;51.28;97899.94;105436;1258;62042;-40
2024/01/24 10:28:53;;;;;;;3.30;2.50;;;;;;;13.56;51.37;97890.19;105532;1253;62120;-39
2024/01/24 10:31:21;;;;;;;3.60;2.60;;;;;;;13.56;51.53;97876.01;105529;1258;76169;-39
2024/01/24 10:33:48;;;;;;;3.50;2.50;;;;;;;13.55;51.73;97866.91;105367;1260;67187;-40
2024/01/24 10:36:16;;;;;;;2.90;2.50;;;;;;;13.56;51.69;97856.95;105516;1254;72389;-41
2024/01/24 10:39:03;;;;;;;4.30;2.70;;;;;;;13.56;51.79;97848.05;105669;1258;62053;-41
2024/01/24 10:41:31;;;;;;;3.70;2.80;;;;;;;13.58;51.77;97841.29;105549;1254;62088;-38
2024/01/24 10:44:04;;;;;;;3.60;2.60;;;;;;;13.59;51.88;97835.01;105635;1255;76018;-40
2024/01/24 10:46:33;;;;;;;3.20;2.50;;;;;;;13.59;51.93;97829.49;105553;1253;66254;-40
2024/01/24 10:49:00;;;;;;;3.30;2.40;;;;;;;13.60;51.91;97825.30;105301;1253;73525;-39
2024/01/24 10:51:27;;;;;;;3.10;2.30;;;;;;;13.60;52.00;97815.01;105431;1261;62045;-42
2024/01/24 10:53:54;;;;;;;3.00;2.30;;;;;;;13.61;51.99;97807.13;105724;1254;62154;-41
2024/01/24 10:56:21;;;;;;;10.30;2.50;;;;;;;13.61;51.86;97794.28;105437;1259;75943;-40
2024/01/24 10:58:48;;;;;;;5.30;2.60;;;;;;;13.61;51.74;97786.30;105346;1259;66433;-41
2024/01/24 11:01:15;;;;;;;4.20;2.50;;;;;;;13.60;51.73;97783.73;105383;1254;73637;-41
2024/01/24 11:03:44;;;;;;;5.20;2.70;;;;;;;13.58;51.70;97779.27;105307;1262;62058;-39
2024/01/24 11:06:14;;;;;;;3.20;2.60;;;;;;;13.58;51.58;97770.83;105585;1254;62132;-44
2024/01/24 11:08:44;;;;;;;3.20;2.40;;;;;;;13.56;51.75;97762.70;105810;1259;76628;-42
2024/01/24 11:11:18;;;;;;;4.10;2.50;;;;;;;13.55;51.80;97761.65;105547;1257;66119;-41
2024/01/24 11:13:46;;;;;;;3.60;2.40;;;;;;;13.55;51.82;97761.11;105575;1259;72503;-42
2024/01/24 11:16:25;;;;;;;2.90;2.40;;;;;;;13.55;51.73;97751.27;105495;1259;62690;-40
2024/01/24 11:18:52;;;;;;;2.60;2.20;;;;;;;13.54;51.71;97741.55;105625;1254;62053;-41
2024/01/24 11:21:21;;;;;;;3.20;2.50;;;;;;;13.53;51.78;97744.71;105780;1254;76298;-39
2024/01/24 11:23:49;;;;;;;6.80;2.70;;;;;;;13.52;51.74;97729.08;105449;1254;67528;-39
2024/01/24 11:26:19;;;;;;;4.30;2.80;;;;;;;13.51;51.59;97720.63;109230;1254;75005;-40